Historyczne dane pomiarowe

Dodano dane terminowe – wersja testowa.

Dane z okresu 1951-2019

Wersja bazy: 1.34 [2019-03-16, lista zmian], aktualizacja planowana na 2019-04-15

Dane meteo z obszaru Polski uzyskane na podstawie danych udostępnionych przez Instytut Meteorologii i Gospodarki Wodnej – Państwowy Instytut Badawczy.

 

Wybierz Datę:    

       

TemperaturaWilgotnośćWiatrCiśnienieOpadyŚniegCzas trwania zjawisk
 Stacja t tx tn tng RH VA  wxwx mslp ppp RRR   cm mm wxwxwxwxwxwxwx
1994-08-14 13.7 19.3 11.3 12.2 87.8- 4.0 3.7---- 9.1------------
1994-08-13 17.8 21.8 13.1 11.4 89.5- 5.3 2.7---- 1.9------------
1994-08-12 16.9 23.3 7.6 5.2 84.0- 2.0 1.7---- 0.0------------
1994-08-11 17.5 24.4 7.3 4.3 82.3- 0.7 1.3---- 0.0------------
1994-08-10 19.4 24.5 13.3 11.1 81.3- 1.3 3.3---- 0.0------------
1994-08-09 17.0 23.7 9.0 7.7 92.0- 6.0 1.7---- 5.4------------
1994-08-08 17.3 23.3 10.1 7.9 94.0- 4.0 0.0---- 0.3------------
1994-08-07 22.2 28.2 17.2 14.7 83.8- 0.0 2.3---- 0.0------------
1994-08-06 24.8 32.4 13.5 11.9 70.3- 0.0 1.7---- 0.0------------
1994-08-05 23.6 30.8 13.7 11.0 80.3- 0.7 0.0---- 0.0------------
1994-08-04 22.9 29.8 14.6 13.0 82.5- 0.0 1.7---- 0.0------------
1994-08-03 21.5 26.5 14.3 12.6 84.0- 5.3 3.3---- 2.0------------
1994-08-02 24.2 32.2 14.1 11.3 72.8- 1.3 1.3---- 0.0------------
1994-08-01 24.5 33.4 14.5 11.4 71.0- 2.7 1.0---- 0.7------------
1994-07-31 25.2 34.3 14.3 11.3 72.5- 0.0 0.7---- 0.0------------
1994-07-30 25.1 33.8 12.3 9.2 70.8- 0.0 1.3---- 0.0------------
1994-07-29 24.0 32.8 12.1 8.8 75.0- 0.0 1.0---- 0.0------------
1994-07-28 23.3 31.8 10.5 6.6 71.0- 0.0 2.7---- 0.0------------
1994-07-27 24.0 31.6 11.4 7.8 69.5- 0.0 2.0---- 0.0------------
1994-07-26 23.0 30.2 12.7 8.4 68.8- 0.0 2.0---- 0.0------------
1994-07-25 22.2 29.6 10.5 7.8 75.3- 0.0 2.0---- 0.0------------
1994-07-24 21.9 28.5 9.4 5.7 72.0- 0.0 1.3---- 0.0------------
1994-07-23 20.3 26.8 10.8 5.7 74.0- 0.0 1.7---- 0.0------------
1994-07-22 20.0 25.2 9.2 5.5 76.3- 0.7 1.7---- 0.0------------
1994-07-21 19.1 26.1 7.0 4.1 68.5- 0.0 3.7---- 0.0------------
1994-07-20 16.8 22.2 6.7 2.5 78.3- 0.0 1.7---- 0.0------------
1994-07-19 16.5 20.2 7.6 4.3 75.8- 2.0 4.7---- 0.0------------
1994-07-18 17.7 22.7 9.4 6.4 78.5- 0.0 2.7---- 0.0------------
1994-07-17 20.9 24.8 15.3 13.7 78.0- 1.3 3.3---- 0.0------------
1994-07-16 22.7 30.9 11.1 9.3 73.8- 0.0 3.3---- 0.0------------
1994-07-15 24.0 30.3 12.9 8.9 71.3- 0.0 1.7---- 0.0------------
1994-07-14 23.9 29.3 15.0 12.9 68.8- 0.0 3.3---- 0.0------------
1994-07-13 24.1 30.0 13.9 10.2 71.8- 0.7 2.7---- 0.0------------
1994-07-12 23.0 29.6 11.3 8.0 71.5- 2.0 2.7---- 0.0------------
1994-07-11 21.4 27.7 10.0 7.7 76.5- 1.3 2.3---- 0.0------------
1994-07-10 19.1 25.9 9.2 0.9 85.8- 0.7 2.0---- 1.8------------
1994-07-09 14.9 18.9 6.0 3.9 91.5- 3.3 4.3---- 0.0------------
1994-07-08 16.2 24.3 7.7 3.7 83.3- 4.7 3.3---- 7.2------------
1994-07-07 17.3 23.4 5.0 1.9 72.8- 0.7 2.0---- 0.0------------
1994-07-06 16.7 22.0 5.4 1.5 70.5- 0.7 2.0---- 0.0------------
1994-07-05 17.4 22.2 7.2 3.7 73.8- 0.7 2.7---- 0.0------------
1994-07-04 18.3 24.3 8.7 4.6 77.3- 1.3 2.3---- 0.0------------
1994-07-03 16.1 22.3 5.1 2.0 78.8- 0.0 2.7---- 0.0------------
1994-07-02 15.9 20.7 7.3 1.7 74.3- 0.0 4.0---- 0.0------------
1994-07-01 15.6 20.7 6.7 3.7 77.8- 2.0 5.0---- 0.0------------
1994-06-30 18.2 24.3 10.5 9.5 80.8- 2.7 3.3---- 0.0------------
1994-06-29 20.2 26.3 9.0 7.6 73.8- 0.0 2.3---- 0.0------------
1994-06-28 18.8 24.8 8.0 5.7 77.3- 0.0 2.3---- 0.0------------
1994-06-27 20.4 25.5 10.8 8.8 84.0- 2.0 5.0---- 0.0------------
1994-06-26 19.4 27.1 5.6 4.1 69.8- 0.0 3.3---- 0.0------------
1994-06-25 15.6 21.7 6.3 4.4 79.5- 0.0 2.7---- 0.0------------
1994-06-24 12.7 16.4 8.0 7.1 74.3- 3.3 8.3---- 0.0------------
1994-06-23 13.1 18.7 8.1 10.6 79.5- 4.0 8.3---- 3.7------------
1994-06-22 15.7 21.7 6.5 4.3 81.5- 3.3 5.7---- 0.0------------
1994-06-21 14.6 21.0 4.7 0.4 77.3- 0.7 3.3---- 0.0------------
1994-06-20 13.8 16.5 9.9 10.3 72.8- 2.0 8.3---- 0.0------------
1994-06-19 12.5 14.4 7.7 8.9 96.0- 6.0 6.3---- 0.9------------
1994-06-18 10.6 16.5 1.4 -2.0 80.3- 2.7 3.7---- 1.6------------
1994-06-17 9.6 13.3 3.5 1.1 88.0- 3.3 3.7---- 1.8------------
1994-06-16 10.1 14.8 5.1 1.7 89.3- 4.7 3.3---- 4.5------------
236.5 ms

 

Źródłem pochodzenia danych jest Instytut Meteorologii i Gospodarki Wodnej – Państwowy Instytut Badawczy. Dane Instytutu Meteorologii i Gospodarki Wodnej – Państwowego Instytutu Badawczego zostały przetworzone.

Dane źródłowe można odnaleźć na stronie https://dane.imgw.pl